createdAt,value
2022-10-24T00:01:27.748Z,3.13
2022-10-24T00:03:54.475Z,2.10
2022-10-24T00:06:21.730Z,4.17
2022-10-24T00:08:49.431Z,2.67
2022-10-24T00:11:22.512Z,3.70
2022-10-24T00:13:50.222Z,4.97
2022-10-24T00:16:17.160Z,3.67
2022-10-24T00:18:43.825Z,3.07
2022-10-24T00:21:11.328Z,1.37
2022-10-24T00:23:37.997Z,4.93
2022-10-24T00:26:05.526Z,1.33
2022-10-24T00:28:35.143Z,1.73
2022-10-24T00:31:02.669Z,5.57
2022-10-24T00:33:29.421Z,2.27
2022-10-24T00:35:56.101Z,1.60
2022-10-24T00:38:22.724Z,3.07
2022-10-24T00:40:49.772Z,4.23
2022-10-24T00:43:19.789Z,3.20
2022-10-24T00:45:55.614Z,5.73
2022-10-24T00:48:36.741Z,2.23
2022-10-24T00:51:14.382Z,5.17
2022-10-24T00:53:47.465Z,3.60
2022-10-24T00:56:16.371Z,3.80
2022-10-24T00:58:44.700Z,7.17
2022-10-24T01:01:12.461Z,2.50
2022-10-24T01:03:39.246Z,4.50
2022-10-24T01:06:37.498Z,3.87
2022-10-24T01:09:22.189Z,2.83
2022-10-24T01:12:10.659Z,4.73
2022-10-24T01:14:58.626Z,3.73
2022-10-24T01:17:42.152Z,3.57
2022-10-24T01:20:29.686Z,2.63
2022-10-24T01:23:21.101Z,4.97
2022-10-24T01:26:18.494Z,2.67
2022-10-24T01:29:16.674Z,2.33
2022-10-24T01:31:57.428Z,2.73
2022-10-24T01:34:30.252Z,2.70
2022-10-24T01:37:03.006Z,3.13
2022-10-24T01:39:34.475Z,3.70
2022-10-24T01:42:03.389Z,2.43
2022-10-24T01:44:44.208Z,3.50
2022-10-24T01:47:22.067Z,3.80
2022-10-24T01:50:00.580Z,6.17
2022-10-24T01:52:31.279Z,3.10
2022-10-24T01:54:57.908Z,1.67
2022-10-24T01:57:32.871Z,2.60
2022-10-24T01:59:59.634Z,3.27
2022-10-24T02:02:43.418Z,4.30
2022-10-24T02:05:24.000Z,5.27
2022-10-24T02:07:56.199Z,2.10
2022-10-24T02:10:28.084Z,3.20
2022-10-24T02:13:01.601Z,2.13
2022-10-24T02:15:36.415Z,2.37
2022-10-24T02:18:03.704Z,4.63
2022-10-24T02:20:46.074Z,6.10
2022-10-24T02:23:52.147Z,4.63
2022-10-24T02:26:31.353Z,2.47
2022-10-24T02:29:03.155Z,5.10
2022-10-24T02:31:35.979Z,2.50
2022-10-24T02:34:05.790Z,3.77
2022-10-24T02:36:34.929Z,1.43
2022-10-24T02:39:05.326Z,6.43
2022-10-24T02:41:35.420Z,6.30
2022-10-24T02:44:03.681Z,3.43
2022-10-24T02:46:31.929Z,8.47
2022-10-24T02:49:01.206Z,5.53
2022-10-24T02:51:33.153Z,6.10
2022-10-24T02:54:00.971Z,7.40
2022-10-24T02:56:28.303Z,4.20
2022-10-24T02:58:55.016Z,3.83
2022-10-24T03:01:21.853Z,2.73
2022-10-24T03:03:48.683Z,5.50
2022-10-24T03:06:15.313Z,3.33
2022-10-24T03:08:41.919Z,5.50
2022-10-24T03:11:08.554Z,7.83
2022-10-24T03:13:35.150Z,5.77
2022-10-24T03:16:01.835Z,2.87
2022-10-24T03:18:28.434Z,7.27
2022-10-24T03:20:55.017Z,5.97
2022-10-24T03:23:22.059Z,6.93
2022-10-24T03:25:48.786Z,5.07
2022-10-24T03:28:15.457Z,4.63
2022-10-24T03:30:42.078Z,3.60
2022-10-24T03:33:08.678Z,4.83
2022-10-24T03:35:37.013Z,5.37
2022-10-24T03:38:03.756Z,7.10
2022-10-24T03:40:30.401Z,6.10
2022-10-24T03:42:57.012Z,4.67
2022-10-24T03:45:23.625Z,4.30
2022-10-24T03:47:50.235Z,7.67
2022-10-24T03:50:17.199Z,6.27
2022-10-24T03:52:44.214Z,6.77
2022-10-24T03:55:11.952Z,8.73
2022-10-24T03:57:38.915Z,4.67
2022-10-24T04:00:06.415Z,6.93
2022-10-24T04:02:33.003Z,6.00
2022-10-24T04:04:59.725Z,4.40
2022-10-24T04:07:26.336Z,4.17
2022-10-24T04:09:52.919Z,6.33
2022-10-24T04:12:19.562Z,10.97
2022-10-24T04:14:46.278Z,5.17
2022-10-24T04:17:12.867Z,7.83
2022-10-24T04:19:39.511Z,6.63
2022-10-24T04:22:06.186Z,5.03
2022-10-24T04:24:33.153Z,5.57
2022-10-24T04:26:59.919Z,8.43
2022-10-24T04:29:26.595Z,9.50
2022-10-24T04:31:53.184Z,3.13
2022-10-24T04:34:19.775Z,4.57
2022-10-24T04:36:46.362Z,5.40
2022-10-24T04:39:12.992Z,4.90
2022-10-24T04:41:39.570Z,5.97
2022-10-24T04:44:06.176Z,5.43
2022-10-24T04:46:32.878Z,6.07
2022-10-24T04:48:59.550Z,6.97
2022-10-24T04:51:26.233Z,7.70
2022-10-24T04:53:52.914Z,8.80
2022-10-24T04:56:19.852Z,5.50
2022-10-24T04:58:46.617Z,5.30
2022-10-24T05:01:13.483Z,7.97
2022-10-24T05:03:40.249Z,4.50
2022-10-24T05:06:06.969Z,3.73
2022-10-24T05:08:33.584Z,6.13
2022-10-24T05:11:00.539Z,5.73
2022-10-24T05:13:27.198Z,4.40
2022-10-24T05:15:53.828Z,5.87
2022-10-24T05:18:20.451Z,4.57
2022-10-24T05:20:47.042Z,8.97
2022-10-24T05:23:13.722Z,5.50
2022-10-24T05:25:40.340Z,4.73
2022-10-24T05:28:06.912Z,3.93
2022-10-24T05:30:33.553Z,4.10
2022-10-24T05:33:00.189Z,6.00
2022-10-24T05:35:26.830Z,5.70
2022-10-24T05:37:53.415Z,8.00
2022-10-24T05:40:20.126Z,7.13
2022-10-24T05:42:47.108Z,3.67
2022-10-24T05:45:13.951Z,7.07
2022-10-24T05:47:40.663Z,8.17
2022-10-24T05:50:08.168Z,4.73
2022-10-24T05:52:36.344Z,6.13
2022-10-24T05:55:08.250Z,7.00
2022-10-24T05:57:36.458Z,6.63
2022-10-24T06:00:06.021Z,6.50
2022-10-24T06:02:32.756Z,6.47
2022-10-24T06:04:59.548Z,4.77
2022-10-24T06:07:26.203Z,3.20
2022-10-24T06:09:52.935Z,3.83
2022-10-24T06:12:19.695Z,6.03
2022-10-24T06:14:46.435Z,7.43
2022-10-24T06:17:13.121Z,6.40
2022-10-24T06:19:40.524Z,3.43
2022-10-24T06:22:08.560Z,9.40
2022-10-24T06:24:38.404Z,4.17
2022-10-24T06:27:05.858Z,3.80
2022-10-24T06:29:32.977Z,2.33
2022-10-24T06:31:59.917Z,5.00
2022-10-24T06:34:26.693Z,7.03
2022-10-24T06:36:53.802Z,5.43
2022-10-24T06:39:20.644Z,5.67
2022-10-24T06:41:47.275Z,3.50
2022-10-24T06:44:13.997Z,2.17
2022-10-24T06:46:40.612Z,5.50
2022-10-24T06:49:07.687Z,5.57
2022-10-24T06:51:34.324Z,2.13
2022-10-24T06:54:00.927Z,2.93
2022-10-24T06:56:27.611Z,3.43
2022-10-24T06:58:54.370Z,4.87
2022-10-24T07:01:23.857Z,7.03
2022-10-24T07:03:51.334Z,6.07
2022-10-24T07:06:26.747Z,4.13
2022-10-24T07:08:55.137Z,5.43
2022-10-24T07:11:21.820Z,6.57
2022-10-24T07:13:48.961Z,2.97
2022-10-24T07:16:15.664Z,4.23
2022-10-24T07:18:42.633Z,4.80
2022-10-24T07:21:14.800Z,5.37
2022-10-24T07:23:41.761Z,5.60
2022-10-24T07:26:11.308Z,3.07
2022-10-24T07:28:39.254Z,5.77
2022-10-24T07:31:06.911Z,8.10
2022-10-24T07:33:34.417Z,4.80
2022-10-24T07:36:01.036Z,5.87
2022-10-24T07:38:27.693Z,8.83
2022-10-24T07:40:54.340Z,4.60
2022-10-24T07:43:20.996Z,6.83
2022-10-24T07:45:51.183Z,6.90
2022-10-24T07:48:19.513Z,3.77
2022-10-24T07:50:47.520Z,7.83
2022-10-24T07:53:14.681Z,6.73
2022-10-24T07:55:43.169Z,8.67
2022-10-24T07:58:11.120Z,7.20
2022-10-24T08:00:41.316Z,6.37
2022-10-24T08:03:11.694Z,5.23
2022-10-24T08:05:40.066Z,6.47
2022-10-24T08:10:53.774Z,7.40
2022-10-24T08:13:20.490Z,9.50
2022-10-24T08:15:47.273Z,8.53
2022-10-24T08:18:14.117Z,3.60
2022-10-24T08:20:40.749Z,5.03
2022-10-24T08:23:07.571Z,4.27
2022-10-24T08:25:34.468Z,3.70
2022-10-24T08:28:03.951Z,7.10
2022-10-24T08:30:33.359Z,8.03
2022-10-24T08:33:00.036Z,6.43
2022-10-24T08:35:26.768Z,6.70
2022-10-24T08:37:53.367Z,5.17
2022-10-24T08:40:20.825Z,4.83
2022-10-24T08:42:48.675Z,6.30
2022-10-24T08:45:43.067Z,8.90
2022-10-24T08:48:19.027Z,5.77
2022-10-24T08:50:51.410Z,8.97
2022-10-24T08:53:24.228Z,5.77
2022-10-24T08:55:55.922Z,13.63
2022-10-24T08:58:35.310Z,4.67
2022-10-24T09:01:07.133Z,6.63
2022-10-24T09:04:02.085Z,7.63
2022-10-24T09:06:32.021Z,7.73
2022-10-24T09:09:02.744Z,6.47
2022-10-24T09:11:40.852Z,8.00
2022-10-24T09:14:16.897Z,6.20
2022-10-24T09:16:45.762Z,3.57
2022-10-24T09:19:19.321Z,9.33
2022-10-24T09:21:47.518Z,7.90
2022-10-24T09:24:23.449Z,5.63
2022-10-24T09:26:50.334Z,4.67
2022-10-24T09:29:17.223Z,6.50
2022-10-24T09:31:43.984Z,6.50
2022-10-24T09:34:11.835Z,4.80
2022-10-24T09:36:39.757Z,5.80
2022-10-24T09:39:37.436Z,6.40
2022-10-24T09:42:04.231Z,4.47
2022-10-24T09:44:43.772Z,4.47
2022-10-24T09:47:28.555Z,5.80
2022-10-24T09:49:55.517Z,7.00
2022-10-24T09:52:28.374Z,4.57
2022-10-24T09:55:20.450Z,5.23
2022-10-24T09:57:48.054Z,3.63
2022-10-24T10:00:27.897Z,6.00
2022-10-24T10:03:31.066Z,6.00
2022-10-24T10:06:02.149Z,4.50
2022-10-24T10:08:31.700Z,6.63
2022-10-24T10:11:03.109Z,3.07
2022-10-24T10:13:31.269Z,4.47
2022-10-24T10:16:05.701Z,4.40
2022-10-24T10:18:42.601Z,5.27
2022-10-24T10:21:12.056Z,6.27
2022-10-24T10:23:53.850Z,6.77
2022-10-24T10:26:44.975Z,5.27
2022-10-24T10:29:18.082Z,7.07
2022-10-24T10:31:50.433Z,11.10
2022-10-24T10:34:23.993Z,5.67
2022-10-24T10:36:59.622Z,4.70
2022-10-24T10:40:00.591Z,6.67
2022-10-24T10:42:35.507Z,3.80
2022-10-24T10:45:35.749Z,5.60
2022-10-24T10:48:23.977Z,3.47
2022-10-24T10:50:53.705Z,6.07
2022-10-24T10:53:41.687Z,5.13
2022-10-24T10:56:23.271Z,2.73
2022-10-24T10:59:29.302Z,5.03
2022-10-24T11:02:20.861Z,5.43
2022-10-24T11:05:14.845Z,2.63
2022-10-24T11:08:17.171Z,3.63
2022-10-24T11:10:52.924Z,1.97
2022-10-24T11:13:40.747Z,2.47
2022-10-24T11:16:14.217Z,6.37
2022-10-24T11:18:46.418Z,3.37
2022-10-24T11:21:16.068Z,3.23
2022-10-24T11:24:13.740Z,2.27
2022-10-24T11:26:43.513Z,2.13
2022-10-24T11:29:31.667Z,3.83
2022-10-24T11:31:58.299Z,2.10
2022-10-24T11:34:50.718Z,2.60
2022-10-24T11:37:34.237Z,1.40
2022-10-24T11:40:22.466Z,2.17
2022-10-24T11:43:13.457Z,2.07
2022-10-24T11:45:43.465Z,4.23
2022-10-24T11:48:11.629Z,3.83
2022-10-24T11:51:06.205Z,1.33
2022-10-24T11:53:32.840Z,4.60
2022-10-24T11:56:14.283Z,3.83
2022-10-24T11:59:01.307Z,1.30
2022-10-24T12:01:33.949Z,2.13
2022-10-24T12:04:28.707Z,1.27
2022-10-24T12:06:58.415Z,1.37
2022-10-24T12:09:52.019Z,2.27
2022-10-24T12:12:42.858Z,2.97
2022-10-24T12:15:35.471Z,8.50
2022-10-24T12:18:06.111Z,2.20
2022-10-24T12:20:33.452Z,9.43
2022-10-24T12:23:02.350Z,2.63
2022-10-24T12:25:37.055Z,1.27
2022-10-24T12:28:25.406Z,1.70
2022-10-24T12:31:22.285Z,3.47
2022-10-24T12:34:16.731Z,2.43
2022-10-24T12:37:05.222Z,1.03
2022-10-24T12:39:47.141Z,1.73
2022-10-24T12:42:22.029Z,4.10
2022-10-24T12:44:50.824Z,0.77
2022-10-24T12:47:34.563Z,1.60
2022-10-24T12:50:36.412Z,2.17
2022-10-24T12:53:05.680Z,2.80
2022-10-24T12:55:39.715Z,7.47
2022-10-24T12:58:28.647Z,1.90
2022-10-24T13:01:01.690Z,1.93
2022-10-24T13:03:53.003Z,0.90
2022-10-24T13:06:31.620Z,3.80
2022-10-24T13:09:13.555Z,2.23
2022-10-24T13:12:01.027Z,2.70
2022-10-24T13:14:48.293Z,2.30
2022-10-24T13:17:20.952Z,3.47
2022-10-24T13:20:21.952Z,2.17
2022-10-24T13:22:50.923Z,1.97
2022-10-24T13:25:33.570Z,2.93
2022-10-24T13:28:25.194Z,1.80
2022-10-24T13:31:17.570Z,1.63
2022-10-24T13:33:46.349Z,1.60
2022-10-24T13:36:23.125Z,1.40
2022-10-24T13:39:02.591Z,1.53
2022-10-24T13:41:35.369Z,1.60
2022-10-24T13:44:26.409Z,1.77
2022-10-24T13:46:55.448Z,3.03
2022-10-24T13:49:48.513Z,0.80
2022-10-24T13:52:24.544Z,1.10
2022-10-24T13:55:14.617Z,1.87
2022-10-24T13:57:53.497Z,1.93
2022-10-24T14:00:28.547Z,2.80
2022-10-24T14:02:56.223Z,0.80
2022-10-24T14:05:36.985Z,1.30
2022-10-24T14:08:05.754Z,1.13
2022-10-24T14:10:32.688Z,1.03
2022-10-24T14:13:00.180Z,2.43
2022-10-24T14:15:35.743Z,0.93
2022-10-24T14:18:07.211Z,1.03
2022-10-24T14:20:36.119Z,2.50
2022-10-24T14:23:15.235Z,2.30
2022-10-24T14:25:41.957Z,1.90
2022-10-24T14:28:17.153Z,1.47
2022-10-24T14:31:04.349Z,0.80
2022-10-24T14:33:52.730Z,2.07
2022-10-24T14:36:21.717Z,3.03
2022-10-24T14:38:52.353Z,1.93
2022-10-24T14:41:21.061Z,2.80
2022-10-24T14:43:47.870Z,0.97
2022-10-24T14:46:14.504Z,1.50
2022-10-24T14:48:47.274Z,2.27
2022-10-24T14:51:38.662Z,2.27
2022-10-24T14:54:16.924Z,2.03
2022-10-24T14:56:43.720Z,0.90
2022-10-24T14:59:29.880Z,3.53
2022-10-24T15:02:20.533Z,2.33
2022-10-24T15:04:47.675Z,3.57
2022-10-24T15:07:23.457Z,5.67
2022-10-24T15:09:55.534Z,2.50
2022-10-24T15:12:40.863Z,1.60
2022-10-24T15:15:34.269Z,2.67
2022-10-24T15:18:08.872Z,2.30
2022-10-24T15:20:39.448Z,1.57
2022-10-24T15:23:08.078Z,3.73
2022-10-24T15:25:39.307Z,3.80
2022-10-24T15:28:49.241Z,1.20
2022-10-24T15:31:20.066Z,1.77
2022-10-24T15:33:47.847Z,2.13
2022-10-24T15:36:24.122Z,1.30
2022-10-24T15:38:56.312Z,1.23
2022-10-24T15:41:23.428Z,2.17
2022-10-24T15:43:50.613Z,1.70
2022-10-24T15:46:17.437Z,2.10
2022-10-24T15:48:44.934Z,3.00
2022-10-24T15:51:21.628Z,3.67
2022-10-24T15:53:50.172Z,2.80
2022-10-24T15:56:17.100Z,2.80
2022-10-24T15:58:44.105Z,1.23
2022-10-24T16:01:22.875Z,2.33
2022-10-24T16:03:49.663Z,1.40
2022-10-24T16:06:16.280Z,1.90
2022-10-24T16:08:42.980Z,1.87
2022-10-24T16:11:11.561Z,2.90
2022-10-24T16:13:38.519Z,1.47
2022-10-24T16:16:05.523Z,2.40
2022-10-24T16:18:32.170Z,2.13
2022-10-24T16:20:59.743Z,2.67
2022-10-24T16:23:27.259Z,2.27
2022-10-24T16:25:54.300Z,1.60
2022-10-24T16:28:23.871Z,3.80
2022-10-24T16:30:50.706Z,2.60
2022-10-24T16:33:20.012Z,2.20
2022-10-24T16:35:50.952Z,3.30
2022-10-24T16:38:17.817Z,3.83
2022-10-24T16:40:47.120Z,4.07
2022-10-24T16:43:16.726Z,2.60
2022-10-24T16:45:43.553Z,2.40
2022-10-24T16:48:10.926Z,1.77
2022-10-24T16:50:41.557Z,1.97
2022-10-24T16:53:08.770Z,3.30
2022-10-24T16:55:35.547Z,4.50
2022-10-24T16:58:02.490Z,2.00
2022-10-24T17:00:30.285Z,3.27
2022-10-24T17:02:58.064Z,3.00
2022-10-24T17:05:27.312Z,3.23
2022-10-24T17:07:53.978Z,2.90
2022-10-24T17:10:23.804Z,2.80
2022-10-24T17:12:52.041Z,2.00
2022-10-24T17:15:21.951Z,5.60
2022-10-24T17:17:49.975Z,2.20
2022-10-24T17:20:17.257Z,4.80
2022-10-24T17:22:45.342Z,2.70
2022-10-24T17:25:24.962Z,2.47
2022-10-24T17:27:52.391Z,2.50
2022-10-24T17:30:32.109Z,2.60
2022-10-24T17:33:02.355Z,3.77
2022-10-24T17:35:30.436Z,2.80
2022-10-24T17:38:03.079Z,3.33
2022-10-24T17:40:45.154Z,2.87
2022-10-24T17:43:20.825Z,4.93
2022-10-24T17:45:48.005Z,3.90
2022-10-24T17:48:14.976Z,2.13
2022-10-24T17:50:42.623Z,4.07
2022-10-24T17:53:12.611Z,3.10
2022-10-24T17:55:46.078Z,2.23
2022-10-24T17:58:14.335Z,3.20
2022-10-24T18:00:41.213Z,1.87
2022-10-24T18:03:08.924Z,3.90
2022-10-24T18:05:38.127Z,2.00
2022-10-24T18:08:07.018Z,2.73
2022-10-24T18:10:34.366Z,2.60
2022-10-24T18:13:01.864Z,1.93
2022-10-24T18:15:28.722Z,2.40
2022-10-24T18:17:55.573Z,2.00
2022-10-24T18:20:22.512Z,1.47
2022-10-24T18:22:49.602Z,2.13
2022-10-24T18:25:20.307Z,1.87
2022-10-24T18:27:50.287Z,4.53
2022-10-24T18:30:19.195Z,3.40
2022-10-24T18:32:46.537Z,3.87
2022-10-24T18:35:13.626Z,3.57
2022-10-24T18:37:40.395Z,2.27
2022-10-24T18:40:08.098Z,2.07
2022-10-24T18:43:05.196Z,2.40
2022-10-24T18:45:32.468Z,1.97
2022-10-24T18:47:59.835Z,2.37
2022-10-24T18:50:26.831Z,2.57
2022-10-24T18:53:08.232Z,0.93
2022-10-24T18:55:35.740Z,0.83
2022-10-24T18:58:03.381Z,1.13
2022-10-24T19:00:32.887Z,3.70
2022-10-24T19:03:02.277Z,0.97
2022-10-24T19:05:54.716Z,0.87
2022-10-24T19:08:24.940Z,2.53
2022-10-24T19:10:52.928Z,1.80
2022-10-24T19:13:19.665Z,0.50
2022-10-24T19:15:53.578Z,2.43
2022-10-24T19:18:20.727Z,1.37
2022-10-24T19:20:47.497Z,3.93
2022-10-24T19:23:15.660Z,3.77
2022-10-24T19:25:42.533Z,2.60
2022-10-24T19:28:12.148Z,1.87
2022-10-24T19:30:42.198Z,1.53
2022-10-24T19:33:09.342Z,1.80
2022-10-24T19:35:41.851Z,1.17
2022-10-24T19:38:08.542Z,0.43
2022-10-24T19:40:35.224Z,1.93
2022-10-24T19:43:01.977Z,2.13
2022-10-24T19:45:28.689Z,1.23
2022-10-24T19:47:55.734Z,3.40
2022-10-24T19:50:22.648Z,0.30
2022-10-24T19:52:49.338Z,2.77
2022-10-24T19:55:16.114Z,1.17
2022-10-24T19:57:42.940Z,0.80
2022-10-24T20:00:10.349Z,3.23
2022-10-24T20:02:37.027Z,2.10
2022-10-24T20:05:03.930Z,1.27
2022-10-24T20:07:30.645Z,1.00
2022-10-24T20:09:57.317Z,2.00
2022-10-24T20:12:24.002Z,1.20
2022-10-24T20:14:50.729Z,2.47
2022-10-24T20:17:17.516Z,1.03
2022-10-24T20:19:44.279Z,0.97
2022-10-24T20:22:10.937Z,1.50
2022-10-24T20:24:37.650Z,1.43
2022-10-24T20:27:04.454Z,2.03
2022-10-24T20:29:32.393Z,2.80
2022-10-24T20:31:59.755Z,1.53
2022-10-24T20:34:26.491Z,1.43
2022-10-24T20:36:53.236Z,0.60
2022-10-24T20:39:22.641Z,1.00
2022-10-24T20:41:51.873Z,2.40
2022-10-24T20:44:21.425Z,1.33
2022-10-24T20:46:48.115Z,1.17
2022-10-24T20:49:14.904Z,1.77
2022-10-24T20:51:42.513Z,2.10
2022-10-24T20:54:10.461Z,3.00
2022-10-24T20:56:41.956Z,2.30
2022-10-24T20:59:11.825Z,1.77
2022-10-24T21:01:38.594Z,2.07
2022-10-24T21:04:05.545Z,1.40
2022-10-24T21:06:33.566Z,0.50
2022-10-24T21:11:31.691Z,1.80
2022-10-24T21:14:07.382Z,0.20
2022-10-24T21:16:34.644Z,1.90
2022-10-24T21:19:02.121Z,4.13
2022-10-24T21:21:28.985Z,1.63
2022-10-24T21:24:04.155Z,0.63
2022-10-24T21:26:39.517Z,1.00
2022-10-24T21:29:31.504Z,0.50
2022-10-24T21:31:53.657Z,0.50
2022-10-24T21:34:21.399Z,0.50
2022-10-24T21:36:48.410Z,1.07
2022-10-24T21:39:17.071Z,1.57
2022-10-24T21:41:44.235Z,0.30
2022-10-24T21:44:11.307Z,0.70
2022-10-24T21:46:38.043Z,1.70
2022-10-24T21:49:04.788Z,0.73
2022-10-24T21:51:33.973Z,0.60
2022-10-24T21:54:06.021Z,0.13
2022-10-24T21:56:36.635Z,0.97
2022-10-24T21:59:06.062Z,0.77
2022-10-24T22:01:37.785Z,0.77
2022-10-24T22:04:06.054Z,1.37
2022-10-24T22:06:34.610Z,0.30
2022-10-24T22:09:01.851Z,1.03
2022-10-24T22:11:30.705Z,0.43
2022-10-24T22:13:58.155Z,0.70
2022-10-24T22:16:29.352Z,0.70
2022-10-24T22:18:58.719Z,3.07
2022-10-24T22:21:31.401Z,2.23
2022-10-24T22:24:00.317Z,2.60
2022-10-24T22:26:27.596Z,4.33
2022-10-24T22:28:55.811Z,2.73
2022-10-24T22:31:23.889Z,2.80
2022-10-24T22:33:50.751Z,1.83
2022-10-24T22:36:35.103Z,4.93
2022-10-24T22:39:02.243Z,1.37
2022-10-24T22:41:29.273Z,1.43
2022-10-24T22:43:56.152Z,0.50
2022-10-24T22:46:22.722Z,0.80
2022-10-24T22:48:52.173Z,0.30
2022-10-24T22:51:20.472Z,0.63
2022-10-24T22:53:47.493Z,2.20
2022-10-24T22:56:22.905Z,0.93
2022-10-24T22:58:49.996Z,0.90
2022-10-24T23:01:43.089Z,0.77
2022-10-24T23:04:27.834Z,0.80
2022-10-24T23:07:08.133Z,0.40
2022-10-24T23:09:34.733Z,0.70
2022-10-24T23:12:01.563Z,2.27
2022-10-24T23:14:28.479Z,0.67
2022-10-24T23:17:00.464Z,1.70
2022-10-24T23:19:29.583Z,2.50
2022-10-24T23:22:16.237Z,1.60
2022-10-24T23:24:43.113Z,2.47
2022-10-24T23:27:12.504Z,0.80
2022-10-24T23:29:44.167Z,1.80
2022-10-24T23:32:23.452Z,1.30
2022-10-24T23:34:51.682Z,1.03
2022-10-24T23:37:30.417Z,1.70
2022-10-24T23:39:57.745Z,2.13
2022-10-24T23:42:24.788Z,1.00
2022-10-24T23:44:51.911Z,1.33
2022-10-24T23:47:38.524Z,3.60
2022-10-24T23:50:43.421Z,0.60
2022-10-24T23:53:40.718Z,2.10
2022-10-24T23:56:13.739Z,1.10
2022-10-24T23:58:40.411Z,0.67
